Time;durP1;ratioP1;P1;durP2;ratioP2;P2;SDS_P1;SDS_P2;PMS_P1;PMS_P2;Temp;Humidity;BMP_temperature;BMP_pressure;BME280_temperature;BME280_humidity;BME280_pressure;Samples;Min_cycle;Max_cycle;Signal;HPM_P1;HPM_P2
2023/01/23 00:01:02;;;;;;;10.10;4.35;;;;;;;;;;6195589;23;20016;-94
2023/01/23 00:03:28;;;;;;;18.00;5.20;;;;;;;;;;6196627;23;20004;-95
2023/01/23 00:06:03;;;;;;;13.80;4.78;;;;;;;;;;6171630;23;20076;-95
2023/01/23 00:08:29;;;;;;;15.93;4.55;;;;;;;;;;6196585;23;20417;-95
2023/01/23 00:10:55;;;;;;;12.82;5.28;;;;;;;;;;6172384;23;20031;-95
2023/01/23 00:13:22;;;;;;;16.23;4.57;;;;;;;;;;6196434;23;20034;-95
2023/01/23 00:15:48;;;;;;;12.73;4.70;;;;;;;;;;6195881;23;20095;-95
2023/01/23 00:18:14;;;;;;;10.07;4.70;;;;;;;;;;6195107;23;20429;-95
2023/01/23 00:20:40;;;;;;;11.88;5.47;;;;;;;;;;6196295;23;20047;-96
2023/01/23 00:23:07;;;;;;;8.82;4.43;;;;;;;;;;6196428;23;20021;-95
2023/01/23 00:25:34;;;;;;;15.18;4.78;;;;;;;;;;6196560;23;20036;-95
2023/01/23 00:28:00;;;;;;;12.07;4.22;;;;;;;;;;6197529;23;20000;-95
2023/01/23 00:30:26;;;;;;;9.95;4.40;;;;;;;;;;6171599;23;20444;-95
2023/01/23 00:32:52;;;;;;;14.65;3.80;;;;;;;;;;6172435;23;20437;-95
2023/01/23 00:35:31;;;;;;;17.85;4.90;;;;;;;;;;6173909;22;20053;-95
2023/01/23 00:37:58;;;;;;;16.08;4.65;;;;;;;;;;6198359;23;20108;-95
2023/01/23 00:40:24;;;;;;;12.88;4.18;;;;;;;;;;6197157;23;20012;-95
2023/01/23 00:42:50;;;;;;;13.90;4.60;;;;;;;;;;6195909;23;20019;-94
2023/01/23 00:45:16;;;;;;;13.98;4.30;;;;;;;;;;6196597;23;20012;-95
2023/01/23 00:47:42;;;;;;;12.63;4.85;;;;;;;;;;6196726;23;20005;-95
2023/01/23 00:50:08;;;;;;;14.45;4.90;;;;;;;;;;6222880;23;20067;-94
2023/01/23 00:52:35;;;;;;;12.68;4.78;;;;;;;;;;6198373;23;20066;-94
2023/01/23 00:55:01;;;;;;;13.63;4.72;;;;;;;;;;6227920;23;20440;-94
2023/01/23 00:57:27;;;;;;;11.48;4.50;;;;;;;;;;6228560;23;20009;-94
2023/01/23 00:59:53;;;;;;;9.55;4.30;;;;;;;;;;6230445;23;20329;-94
2023/01/23 01:02:20;;;;;;;11.80;4.55;;;;;;;;;;6205574;23;20031;-94
2023/01/23 01:04:46;;;;;;;12.98;4.38;;;;;;;;;;6208599;23;20000;-94
2023/01/23 01:07:12;;;;;;;13.52;4.35;;;;;;;;;;6233235;23;20005;-94
2023/01/23 01:09:38;;;;;;;14.15;4.90;;;;;;;;;;6208855;23;20027;-95
2023/01/23 01:12:04;;;;;;;14.25;4.20;;;;;;;;;;6204571;23;20005;-95
2023/01/23 01:14:30;;;;;;;14.77;4.65;;;;;;;;;;6201463;23;20005;-95
2023/01/23 01:16:57;;;;;;;8.63;3.92;;;;;;;;;;6198901;23;20020;-95
2023/01/23 01:19:23;;;;;;;12.27;4.25;;;;;;;;;;6198844;23;20020;-94
2023/01/23 01:21:49;;;;;;;19.15;4.68;;;;;;;;;;6197139;23;20019;-95
2023/01/23 01:24:15;;;;;;;10.82;3.55;;;;;;;;;;6195260;23;20091;-95
2023/01/23 01:26:41;;;;;;;11.23;5.07;;;;;;;;;;6221036;23;20008;-95
2023/01/23 01:29:08;;;;;;;8.80;4.13;;;;;;;;;;6195350;23;20016;-94
2023/01/23 01:31:34;;;;;;;8.88;4.13;;;;;;;;;;6195853;23;20008;-95
2023/01/23 01:34:00;;;;;;;8.75;4.30;;;;;;;;;;6198552;23;20024;-95
2023/01/23 01:36:26;;;;;;;10.20;4.45;;;;;;;;;;6204936;22;20464;-95
2023/01/23 01:38:52;;;;;;;13.60;4.30;;;;;;;;;;6204151;23;20035;-95
2023/01/23 01:41:18;;;;;;;13.50;4.45;;;;;;;;;;6227673;23;20004;-96
2023/01/23 01:43:45;;;;;;;22.40;4.15;;;;;;;;;;6204020;23;20040;-95
2023/01/23 01:46:11;;;;;;;12.05;4.60;;;;;;;;;;6228351;23;20087;-95
2023/01/23 01:48:37;;;;;;;10.73;4.05;;;;;;;;;;6228126;23;20004;-95
2023/01/23 01:51:06;;;;;;;21.13;4.85;;;;;;;;;;6228515;23;20000;-95
2023/01/23 01:53:33;;;;;;;8.98;3.97;;;;;;;;;;6228548;23;20028;-96
2023/01/23 01:55:59;;;;;;;14.48;4.05;;;;;;;;;;6200470;23;20015;-95
2023/01/23 01:58:26;;;;;;;13.32;4.70;;;;;;;;;;6225519;23;20389;-94
2023/01/23 02:00:52;;;;;;;12.65;4.95;;;;;;;;;;6225328;23;20412;-95
2023/01/23 02:03:18;;;;;;;10.55;4.18;;;;;;;;;;6199947;23;20020;-95
2023/01/23 02:05:46;;;;;;;15.98;5.10;;;;;;;;;;6225140;23;20011;-95
2023/01/23 02:08:28;;;;;;;16.00;4.82;;;;;;;;;;6225267;23;20083;-95
2023/01/23 02:10:54;;;;;;;11.93;4.88;;;;;;;;;;6225934;23;20007;-95
2023/01/23 02:13:24;;;;;;;13.43;5.22;;;;;;;;;;6199598;23;20138;-95
2023/01/23 02:15:51;;;;;;;14.23;4.32;;;;;;;;;;6224240;23;20000;-94
2023/01/23 02:18:17;;;;;;;16.15;5.00;;;;;;;;;;6226133;23;20422;-95
2023/01/23 02:20:44;;;;;;;14.30;4.72;;;;;;;;;;6224816;23;20039;-94
2023/01/23 02:23:10;;;;;;;15.15;4.93;;;;;;;;;;6225157;23;20012;-95
2023/01/23 02:25:46;;;;;;;13.90;5.10;;;;;;;;;;6224644;23;20012;-95
2023/01/23 02:28:13;;;;;;;16.98;5.45;;;;;;;;;;6224873;23;20083;-95
2023/01/23 02:30:41;;;;;;;11.95;4.80;;;;;;;;;;6224942;23;20000;-95
2023/01/23 02:33:19;;;;;;;18.20;4.65;;;;;;;;;;6226344;23;20004;-94
2023/01/23 02:35:46;;;;;;;10.40;4.85;;;;;;;;;;6229643;22;20011;-94
2023/01/23 02:38:12;;;;;;;10.23;4.95;;;;;;;;;;6202896;23;20012;-95
2023/01/23 02:40:40;;;;;;;17.00;4.25;;;;;;;;;;6230337;23;20004;-95
2023/01/23 02:43:08;;;;;;;10.73;5.00;;;;;;;;;;6230330;23;20103;-94
2023/01/23 02:45:34;;;;;;;15.38;5.03;;;;;;;;;;6228373;23;20027;-95
2023/01/23 02:48:01;;;;;;;16.15;4.70;;;;;;;;;;6226821;23;20005;-95
2023/01/23 02:50:27;;;;;;;8.20;4.43;;;;;;;;;;6205937;23;20008;-95
2023/01/23 02:52:53;;;;;;;16.00;4.60;;;;;;;;;;6229716;23;20011;-96
2023/01/23 02:55:20;;;;;;;14.25;4.72;;;;;;;;;;6205671;23;20039;-95
2023/01/23 02:57:47;;;;;;;13.65;5.03;;;;;;;;;;6229900;23;20391;-95
2023/01/23 03:00:18;;;;;;;17.20;5.32;;;;;;;;;;6205924;23;20043;-95
2023/01/23 03:02:48;;;;;;;11.00;5.55;;;;;;;;;;6206538;23;20059;-94
2023/01/23 03:05:15;;;;;;;12.20;5.30;;;;;;;;;;6229439;23;20012;-95
2023/01/23 03:07:41;;;;;;;10.27;5.18;;;;;;;;;;6205150;23;20037;-95
2023/01/23 03:10:08;;;;;;;14.15;4.82;;;;;;;;;;6205093;23;20004;-95
2023/01/23 03:12:34;;;;;;;11.10;4.53;;;;;;;;;;6229984;23;20126;-96
2023/01/23 03:15:01;;;;;;;14.32;4.43;;;;;;;;;;6229520;23;20000;-95
2023/01/23 03:17:27;;;;;;;14.45;5.15;;;;;;;;;;6230056;23;20361;-95
2023/01/23 03:19:56;;;;;;;8.55;4.55;;;;;;;;;;6230101;23;20000;-96
2023/01/23 03:22:22;;;;;;;11.50;4.88;;;;;;;;;;6205565;23;20031;-96
2023/01/23 03:24:49;;;;;;;12.23;5.13;;;;;;;;;;6230245;23;20336;-95
2023/01/23 03:27:15;;;;;;;12.63;5.25;;;;;;;;;;6228015;23;20004;-95
2023/01/23 03:32:25;;;;;;;11.85;5.68;;;;;;;;;;6254579;23;20034;-95
2023/01/23 03:34:52;;;;;;;11.63;5.32;;;;;;;;;;6202527;23;20004;-95
2023/01/23 03:37:18;;;;;;;10.88;4.78;;;;;;;;;;6208697;22;20023;-95
2023/01/23 03:42:29;;;;;;;16.48;5.28;;;;;;;;;;6224089;23;20019;-95
2023/01/23 03:44:55;;;;;;;15.82;4.80;;;;;;;;;;6196056;23;20005;-95
2023/01/23 03:47:21;;;;;;;15.00;5.00;;;;;;;;;;6171991;23;20004;-96
2023/01/23 03:49:48;;;;;;;13.40;4.95;;;;;;;;;;6196692;23;20004;-95
2023/01/23 03:52:14;;;;;;;12.07;5.07;;;;;;;;;;6172389;23;20012;-96
2023/01/23 03:54:41;;;;;;;22.67;5.72;;;;;;;;;;6173483;23;20445;-96
2023/01/23 03:57:07;;;;;;;16.67;5.20;;;;;;;;;;6173160;23;20016;-96
2023/01/23 03:59:33;;;;;;;15.07;5.10;;;;;;;;;;6197305;23;20005;-95
2023/01/23 04:02:00;;;;;;;16.58;5.47;;;;;;;;;;6173075;23;20096;-95
2023/01/23 04:04:26;;;;;;;14.27;4.75;;;;;;;;;;6173210;23;20012;-95
2023/01/23 04:06:52;;;;;;;12.98;5.25;;;;;;;;;;6197849;23;20317;-95
2023/01/23 04:09:18;;;;;;;10.73;4.57;;;;;;;;;;6180617;23;20011;-95
2023/01/23 04:11:45;;;;;;;7.07;4.25;;;;;;;;;;6176328;23;20087;-94
2023/01/23 04:14:11;;;;;;;15.10;5.00;;;;;;;;;;6200866;23;20011;-95
2023/01/23 04:16:37;;;;;;;8.10;3.70;;;;;;;;;;6177572;23;20017;-94
2023/01/23 04:19:03;;;;;;;10.18;4.68;;;;;;;;;;6173478;23;20012;-95
2023/01/23 04:21:29;;;;;;;12.75;4.90;;;;;;;;;;6171389;23;20039;-95
2023/01/23 04:23:55;;;;;;;11.57;4.57;;;;;;;;;;6195887;23;20004;-95
2023/01/23 04:26:21;;;;;;;8.77;4.32;;;;;;;;;;6196000;23;20012;-95
2023/01/23 04:28:47;;;;;;;9.98;4.05;;;;;;;;;;6170731;23;20005;-95
2023/01/23 04:31:13;;;;;;;10.25;4.28;;;;;;;;;;6170625;23;20009;-95
2023/01/23 04:33:39;;;;;;;12.65;3.95;;;;;;;;;;6170723;23;20004;-95
2023/01/23 04:36:06;;;;;;;12.52;5.00;;;;;;;;;;6171833;22;20032;-95
2023/01/23 04:38:33;;;;;;;7.82;4.43;;;;;;;;;;6195412;23;20071;-95
2023/01/23 04:40:59;;;;;;;12.68;4.15;;;;;;;;;;6170344;23;20036;-95
2023/01/23 04:43:25;;;;;;;13.32;4.50;;;;;;;;;;6170070;23;20012;-95
2023/01/23 04:45:55;;;;;;;12.70;4.65;;;;;;;;;;6194609;23;20031;-95
2023/01/23 04:48:22;;;;;;;12.57;4.45;;;;;;;;;;6188623;23;20004;-95
2023/01/23 04:50:48;;;;;;;12.85;4.68;;;;;;;;;;6170003;23;20009;-95
2023/01/23 04:53:15;;;;;;;9.57;4.47;;;;;;;;;;6169871;23;20008;-95
2023/01/23 04:55:41;;;;;;;10.13;4.63;;;;;;;;;;6194846;23;20009;-95
2023/01/23 04:58:10;;;;;;;14.55;4.80;;;;;;;;;;6170483;23;20024;-96
2023/01/23 05:00:36;;;;;;;17.67;4.53;;;;;;;;;;6171671;23;20381;-96
2023/01/23 05:03:02;;;;;;;13.65;5.72;;;;;;;;;;6195823;23;20008;-95
2023/01/23 05:05:28;;;;;;;13.65;4.72;;;;;;;;;;6170383;23;20008;-95
2023/01/23 05:07:54;;;;;;;11.57;4.45;;;;;;;;;;6195679;23;20337;-95
2023/01/23 05:10:20;;;;;;;16.23;6.13;;;;;;;;;;6195255;23;20005;-96
2023/01/23 05:12:46;;;;;;;8.45;5.22;;;;;;;;;;6170775;23;20464;-96
2023/01/23 05:15:12;;;;;;;10.93;5.93;;;;;;;;;;6170530;23;20009;-95
2023/01/23 05:17:38;;;;;;;12.95;5.35;;;;;;;;;;6170125;23;20005;-95
2023/01/23 05:20:05;;;;;;;18.23;5.38;;;;;;;;;;6170741;23;20008;-96
2023/01/23 05:22:32;;;;;;;10.85;6.00;;;;;;;;;;6170786;23;20004;-95
2023/01/23 05:24:58;;;;;;;14.25;5.82;;;;;;;;;;6195563;23;20005;-96
2023/01/23 05:27:24;;;;;;;16.08;5.38;;;;;;;;;;6170558;23;20425;-95
2023/01/23 05:29:50;;;;;;;12.82;5.28;;;;;;;;;;6170118;23;20087;-95
2023/01/23 05:32:16;;;;;;;15.45;5.80;;;;;;;;;;6169128;23;20013;-95
2023/01/23 05:34:43;;;;;;;12.32;5.38;;;;;;;;;;6194035;23;20291;-96
2023/01/23 05:37:09;;;;;;;9.65;5.75;;;;;;;;;;6170493;23;20032;-96
2023/01/23 05:39:35;;;;;;;15.73;5.55;;;;;;;;;;6194605;23;20488;-96
2023/01/23 05:42:01;;;;;;;13.77;5.30;;;;;;;;;;6194669;23;20483;-96
2023/01/23 05:44:29;;;;;;;13.70;5.68;;;;;;;;;;6193575;23;20057;-96
2023/01/23 05:46:55;;;;;;;11.05;5.13;;;;;;;;;;6218631;23;20005;-96
2023/01/23 05:49:21;;;;;;;13.05;5.28;;;;;;;;;;6193601;23;20009;-95
2023/01/23 05:51:47;;;;;;;16.10;5.03;;;;;;;;;;6196622;23;20344;-96
2023/01/23 05:54:13;;;;;;;13.38;5.15;;;;;;;;;;6197538;23;20491;-94
2023/01/23 05:56:39;;;;;;;14.70;5.43;;;;;;;;;;6198920;23;20012;-94
2023/01/23 05:59:05;;;;;;;20.40;5.57;;;;;;;;;;6198038;23;20372;-95
2023/01/23 06:01:31;;;;;;;8.93;4.82;;;;;;;;;;6197226;23;20009;-95
2023/01/23 06:04:04;;;;;;;21.77;6.13;;;;;;;;;;6198687;23;20012;-95
2023/01/23 06:06:30;;;;;;;19.73;5.50;;;;;;;;;;6197773;23;20016;-95
2023/01/23 06:08:58;;;;;;;16.10;5.45;;;;;;;;;;6199382;23;20031;-95
2023/01/23 06:11:24;;;;;;;10.68;5.57;;;;;;;;;;6224907;23;20054;-95
2023/01/23 06:13:50;;;;;;;15.73;5.63;;;;;;;;;;6199142;23;20008;-95
2023/01/23 06:16:23;;;;;;;14.57;5.10;;;;;;;;;;6199990;23;20067;-95
2023/01/23 06:18:49;;;;;;;14.60;5.00;;;;;;;;;;6200733;23;20012;-96
2023/01/23 06:21:17;;;;;;;12.45;5.63;;;;;;;;;;6199703;23;20028;-95
2023/01/23 06:23:43;;;;;;;8.85;4.80;;;;;;;;;;6198624;23;20016;-95
2023/01/23 06:26:09;;;;;;;16.38;5.90;;;;;;;;;;6199132;23;20444;-95
2023/01/23 06:28:35;;;;;;;17.38;5.63;;;;;;;;;;6223925;23;20004;-95
2023/01/23 06:31:06;;;;;;;15.80;6.07;;;;;;;;;;6226283;23;20031;-95
2023/01/23 06:33:32;;;;;;;14.30;6.10;;;;;;;;;;6202028;23;20089;-94
2023/01/23 06:35:59;;;;;;;16.70;5.82;;;;;;;;;;6226385;23;20005;-94
2023/01/23 06:38:25;;;;;;;16.42;5.90;;;;;;;;;;6177501;22;20048;-95
2023/01/23 06:40:54;;;;;;;18.50;6.05;;;;;;;;;;6198717;23;20004;-96
2023/01/23 06:43:20;;;;;;;16.10;7.00;;;;;;;;;;6173958;23;20016;-96
2023/01/23 06:45:47;;;;;;;13.10;5.95;;;;;;;;;;6199434;23;20464;-95
2023/01/23 06:48:13;;;;;;;12.98;6.70;;;;;;;;;;6200525;23;20004;-96
2023/01/23 06:50:39;;;;;;;18.05;6.07;;;;;;;;;;6178094;23;20035;-95
2023/01/23 06:53:13;;;;;;;13.90;6.28;;;;;;;;;;6176271;23;20036;-96
2023/01/23 06:55:40;;;;;;;23.23;7.75;;;;;;;;;;6201685;23;20332;-95
2023/01/23 06:58:06;;;;;;;15.55;5.72;;;;;;;;;;6201851;23;20421;-96
2023/01/23 07:00:33;;;;;;;17.35;7.00;;;;;;;;;;6200638;23;20492;-95
2023/01/23 07:03:02;;;;;;;13.27;6.00;;;;;;;;;;6177866;23;20012;-94
2023/01/23 07:05:39;;;;;;;22.83;6.50;;;;;;;;;;6205284;23;20014;-96
2023/01/23 07:08:06;;;;;;;17.67;6.72;;;;;;;;;;6201311;23;20007;-95
2023/01/23 07:10:32;;;;;;;20.00;7.18;;;;;;;;;;6176235;23;20408;-96
2023/01/23 07:12:58;;;;;;;19.25;7.05;;;;;;;;;;6181092;23;20059;-95
2023/01/23 07:15:24;;;;;;;14.23;7.15;;;;;;;;;;6176224;23;20019;-94
2023/01/23 07:17:50;;;;;;;21.08;8.00;;;;;;;;;;6172062;23;20040;-95
2023/01/23 07:20:16;;;;;;;22.33;7.43;;;;;;;;;;6172734;23;20019;-95
2023/01/23 07:22:42;;;;;;;20.33;7.55;;;;;;;;;;6174660;23;20480;-94
2023/01/23 07:25:08;;;;;;;19.02;7.53;;;;;;;;;;6171818;23;20395;-94
2023/01/23 07:27:37;;;;;;;17.92;7.13;;;;;;;;;;6201928;23;20005;-95
2023/01/23 07:30:08;;;;;;;19.17;8.00;;;;;;;;;;6181603;23;20031;-96
2023/01/23 07:32:34;;;;;;;17.92;7.65;;;;;;;;;;6182756;23;20005;-96
2023/01/23 07:35:00;;;;;;;23.73;7.57;;;;;;;;;;6202392;23;20005;-96
2023/01/23 07:37:26;;;;;;;16.15;7.53;;;;;;;;;;6195414;23;20075;-96
2023/01/23 07:39:52;;;;;;;20.63;8.10;;;;;;;;;;6228682;23;20062;-96
2023/01/23 07:42:19;;;;;;;20.67;7.38;;;;;;;;;;6229361;23;20015;-96
2023/01/23 07:44:46;;;;;;;14.52;6.95;;;;;;;;;;6226816;23;20443;-96
2023/01/23 07:47:15;;;;;;;18.13;7.20;;;;;;;;;;6201225;23;20009;-96
2023/01/23 07:49:42;;;;;;;20.65;7.85;;;;;;;;;;6229404;23;20004;-96
2023/01/23 07:52:08;;;;;;;17.33;7.22;;;;;;;;;;6232831;23;20027;-96
2023/01/23 07:54:34;;;;;;;23.02;8.02;;;;;;;;;;6230274;23;20000;-96
2023/01/23 07:57:00;;;;;;;20.42;7.90;;;;;;;;;;6203450;23;20015;-96
2023/01/23 07:59:26;;;;;;;17.08;7.78;;;;;;;;;;6202462;23;20043;-96
2023/01/23 08:01:53;;;;;;;17.92;7.72;;;;;;;;;;6204960;23;20008;-96
2023/01/23 08:04:19;;;;;;;12.55;6.13;;;;;;;;;;6202999;23;20008;-96
2023/01/23 08:06:45;;;;;;;20.08;8.20;;;;;;;;;;6202501;23;20012;-96
2023/01/23 08:09:12;;;;;;;14.55;6.97;;;;;;;;;;6202660;23;20004;-96
2023/01/23 08:11:38;;;;;;;20.60;6.53;;;;;;;;;;6202419;23;20039;-95
2023/01/23 08:14:04;;;;;;;14.18;6.68;;;;;;;;;;6202628;23;20325;-96
2023/01/23 08:16:30;;;;;;;13.65;6.10;;;;;;;;;;6228253;23;20008;-96
2023/01/23 08:18:56;;;;;;;10.95;6.45;;;;;;;;;;6226722;23;20019;-95
2023/01/23 08:21:23;;;;;;;17.02;6.95;;;;;;;;;;6202516;23;20012;-96
2023/01/23 08:23:52;;;;;;;14.55;6.00;;;;;;;;;;6202212;23;20012;-96
2023/01/23 08:26:18;;;;;;;12.43;5.82;;;;;;;;;;6202117;23;20008;-95
2023/01/23 08:28:45;;;;;;;13.85;5.72;;;;;;;;;;6202667;23;20428;-96
2023/01/23 08:31:12;;;;;;;14.13;6.03;;;;;;;;;;6228934;23;20004;-96
2023/01/23 08:33:38;;;;;;;12.93;6.28;;;;;;;;;;6203831;23;20090;-96
2023/01/23 08:36:05;;;;;;;10.88;5.15;;;;;;;;;;6201492;23;20012;-96
2023/01/23 08:38:31;;;;;;;8.07;4.22;;;;;;;;;;6175042;22;20025;-96
2023/01/23 08:41:01;;;;;;;11.18;6.10;;;;;;;;;;6195357;23;20009;-96
2023/01/23 08:43:27;;;;;;;17.13;5.15;;;;;;;;;;6202811;23;20013;-95
2023/01/23 08:45:54;;;;;;;14.30;4.82;;;;;;;;;;6196547;23;20005;-95
2023/01/23 08:48:22;;;;;;;13.07;5.22;;;;;;;;;;6170739;23;20009;-95
2023/01/23 08:50:49;;;;;;;7.15;4.75;;;;;;;;;;6170972;23;20015;-95
2023/01/23 08:53:15;;;;;;;13.40;4.85;;;;;;;;;;6195466;23;20001;-95
2023/01/23 08:55:41;;;;;;;10.00;5.22;;;;;;;;;;6195508;23;20451;-95
2023/01/23 08:58:08;;;;;;;14.15;5.43;;;;;;;;;;6196339;23;20036;-94
2023/01/23 09:00:34;;;;;;;10.02;4.80;;;;;;;;;;6171244;23;20008;-94
2023/01/23 09:03:01;;;;;;;10.30;4.82;;;;;;;;;;6196269;23;20102;-95
2023/01/23 09:05:28;;;;;;;9.15;4.30;;;;;;;;;;6199768;23;20340;-94
2023/01/23 09:07:55;;;;;;;14.15;5.53;;;;;;;;;;6197672;23;20333;-95
2023/01/23 09:10:21;;;;;;;12.43;5.32;;;;;;;;;;6195659;23;20437;-95
2023/01/23 09:12:47;;;;;;;9.00;4.75;;;;;;;;;;6171281;23;20437;-94
2023/01/23 09:15:13;;;;;;;13.85;4.32;;;;;;;;;;6172376;23;20008;-96
2023/01/23 09:17:39;;;;;;;8.40;4.32;;;;;;;;;;6170920;23;20091;-95
2023/01/23 09:20:08;;;;;;;13.50;4.65;;;;;;;;;;6171571;23;20060;-96
2023/01/23 09:22:34;;;;;;;6.68;3.42;;;;;;;;;;6171065;23;20009;-95
2023/01/23 09:25:00;;;;;;;7.70;4.28;;;;;;;;;;6194899;23;20028;-96
2023/01/23 09:27:26;;;;;;;8.30;4.35;;;;;;;;;;6171845;23;20035;-95
2023/01/23 09:29:52;;;;;;;10.63;4.50;;;;;;;;;;6197066;23;20405;-96
2023/01/23 09:32:18;;;;;;;9.63;4.45;;;;;;;;;;6171162;23;20009;-95
2023/01/23 09:34:47;;;;;;;11.93;4.82;;;;;;;;;;6172680;23;20139;-96
2023/01/23 09:37:14;;;;;;;11.75;4.72;;;;;;;;;;6175758;23;20016;-95
2023/01/23 09:39:42;;;;;;;7.40;4.43;;;;;;;;;;6173069;23;20008;-95
2023/01/23 09:42:14;;;;;;;15.38;5.70;;;;;;;;;;6197442;23;20005;-94
2023/01/23 09:44:56;;;;;;;16.25;5.55;;;;;;;;;;6197363;23;20015;-94
2023/01/23 09:47:26;;;;;;;13.57;6.13;;;;;;;;;;6197927;23;20009;-94
2023/01/23 09:49:57;;;;;;;9.48;5.43;;;;;;;;;;6197615;23;20055;-94
2023/01/23 09:52:25;;;;;;;11.23;5.45;;;;;;;;;;6198857;23;20036;-95
2023/01/23 09:55:01;;;;;;;12.68;5.93;;;;;;;;;;6198391;23;20056;-95
2023/01/23 09:57:27;;;;;;;;;;;;;;;;;;6198870;23;20013;-93
2023/01/23 10:00:13;;;;;;;15.05;6.13;;;;;;;;;;6198689;23;20272;-93
2023/01/23 10:02:41;;;;;;;17.98;6.85;;;;;;;;;;6198083;23;20384;-94
2023/01/23 10:05:12;;;;;;;13.60;5.63;;;;;;;;;;6198370;23;20387;-94
2023/01/23 10:07:53;;;;;;;11.35;5.45;;;;;;;;;;6199174;23;20005;-95
2023/01/23 10:10:25;;;;;;;10.73;5.25;;;;;;;;;;6201084;23;20004;-94
2023/01/23 10:12:51;;;;;;;9.35;5.60;;;;;;;;;;6205839;23;20028;-94
2023/01/23 10:15:41;;;;;;;10.85;5.28;;;;;;;;;;6202045;23;20380;-96
2023/01/23 10:18:18;;;;;;;14.80;6.20;;;;;;;;;;6207884;23;20043;-95
2023/01/23 10:21:03;;;;;;;18.38;6.95;;;;;;;;;;6209512;23;20051;-95
2023/01/23 10:23:29;;;;;;;15.45;6.50;;;;;;;;;;6218425;23;20008;-94
2023/01/23 10:25:55;;;;;;;14.77;7.10;;;;;;;;;;6217172;23;20024;-93
2023/01/23 10:28:28;;;;;;;15.68;7.72;;;;;;;;;;6190922;23;20012;-93
2023/01/23 10:30:57;;;;;;;13.27;7.50;;;;;;;;;;6206936;23;20005;-95
2023/01/23 10:33:30;;;;;;;16.88;7.07;;;;;;;;;;6203084;23;20064;-96
2023/01/23 10:36:01;;;;;;;13.30;6.22;;;;;;;;;;6200291;23;20035;-95
2023/01/23 10:38:45;;;;;;;15.10;6.82;;;;;;;;;;6201896;22;20020;-94
2023/01/23 10:41:12;;;;;;;15.90;8.32;;;;;;;;;;6197411;23;20008;-95
2023/01/23 10:43:42;;;;;;;16.00;6.53;;;;;;;;;;6200511;23;20340;-95
2023/01/23 10:46:12;;;;;;;12.85;6.90;;;;;;;;;;6171955;23;20008;-95
2023/01/23 10:48:40;;;;;;;14.48;7.47;;;;;;;;;;6198739;23;20005;-95
2023/01/23 10:51:25;;;;;;;13.23;6.50;;;;;;;;;;6197321;23;20029;-96
2023/01/23 10:54:13;;;;;;;14.43;6.70;;;;;;;;;;6198525;23;20036;-96
2023/01/23 10:56:59;;;;;;;14.18;6.35;;;;;;;;;;6197734;23;20087;-95
2023/01/23 10:59:25;;;;;;;;;;;;;;;;;;6201304;23;20035;-96
2023/01/23 11:01:59;;;;;;;14.52;7.03;;;;;;;;;;6199618;23;20275;-95
2023/01/23 11:04:30;;;;;;;15.50;7.60;;;;;;;;;;6199563;23;20009;-96
2023/01/23 11:07:01;;;;;;;12.95;6.50;;;;;;;;;;6199271;23;20004;-95
2023/01/23 11:09:27;;;;;;;13.77;6.88;;;;;;;;;;6199445;23;20472;-96
2023/01/23 11:12:00;;;;;;;18.42;7.65;;;;;;;;;;6199785;23;20075;-96
2023/01/23 11:14:26;;;;;;;15.13;6.28;;;;;;;;;;6175013;23;20032;-96
2023/01/23 11:17:00;;;;;;;16.88;7.40;;;;;;;;;;6175084;23;20090;-95
2023/01/23 11:19:26;;;;;;;16.20;7.57;;;;;;;;;;6199590;23;20005;-95
2023/01/23 11:21:54;;;;;;;20.00;7.45;;;;;;;;;;6174066;23;20045;-96
2023/01/23 11:24:26;;;;;;;17.08;7.22;;;;;;;;;;6196245;23;20008;-94
2023/01/23 11:27:04;;;;;;;20.13;8.27;;;;;;;;;;6196915;23;20004;-95
2023/01/23 11:29:41;;;;;;;16.20;7.00;;;;;;;;;;6173364;23;20341;-95
2023/01/23 11:32:12;;;;;;;19.45;7.35;;;;;;;;;;6196557;23;20043;-95
2023/01/23 11:34:42;;;;;;;12.45;6.72;;;;;;;;;;6198943;23;20008;-94
2023/01/23 11:37:17;;;;;;;15.82;6.07;;;;;;;;;;6200888;22;20436;-96
2023/01/23 11:39:43;;;;;;;12.30;6.07;;;;;;;;;;6224397;23;20004;-96
2023/01/23 11:42:10;;;;;;;17.13;6.88;;;;;;;;;;6223739;23;20011;-95
2023/01/23 11:44:40;;;;;;;12.98;6.18;;;;;;;;;;6228995;23;20429;-95
2023/01/23 11:47:06;;;;;;;18.00;7.15;;;;;;;;;;6228176;23;20078;-94
2023/01/23 11:49:32;;;;;;;17.33;7.78;;;;;;;;;;6223646;23;20020;-95
2023/01/23 11:52:17;;;;;;;15.15;7.65;;;;;;;;;;6223258;23;20005;-95
2023/01/23 11:55:03;;;;;;;13.80;6.53;;;;;;;;;;6225046;23;20001;-95
2023/01/23 11:57:36;;;;;;;15.15;6.65;;;;;;;;;;6222633;23;20009;-94
2023/01/23 12:00:21;;;;;;;11.63;6.35;;;;;;;;;;6223614;23;20012;-95
2023/01/23 12:03:07;;;;;;;11.38;5.82;;;;;;;;;;6222470;23;20030;-94
2023/01/23 12:05:48;;;;;;;13.63;7.00;;;;;;;;;;6185233;23;20032;-95
2023/01/23 12:08:44;;;;;;;13.85;6.80;;;;;;;;;;6221711;23;20319;-94
2023/01/23 12:11:15;;;;;;;13.57;6.43;;;;;;;;;;6195959;23;20005;-95
2023/01/23 12:14:00;;;;;;;20.88;7.47;;;;;;;;;;6195597;23;20507;-95
2023/01/23 12:16:44;;;;;;;17.65;8.25;;;;;;;;;;6194920;23;20005;-95
2023/01/23 12:19:13;;;;;;;16.10;7.20;;;;;;;;;;6195973;23;20012;-96
2023/01/23 12:21:51;;;;;;;12.20;6.88;;;;;;;;;;6196180;23;20004;-96
2023/01/23 12:24:21;;;;;;;12.88;6.68;;;;;;;;;;6195614;23;20015;-96
2023/01/23 12:26:55;;;;;;;14.10;6.97;;;;;;;;;;6221597;23;20091;-96
2023/01/23 12:29:44;;;;;;;14.70;6.22;;;;;;;;;;6171982;23;20004;-94
2023/01/23 12:32:16;;;;;;;14.77;6.70;;;;;;;;;;6196003;23;20005;-96
2023/01/23 12:34:51;;;;;;;12.55;6.90;;;;;;;;;;6197410;23;20001;-96
2023/01/23 12:37:36;;;;;;;10.77;5.43;;;;;;;;;;6197757;22;20013;-95
2023/01/23 12:40:06;;;;;;;11.80;6.20;;;;;;;;;;6196467;23;20015;-96
2023/01/23 12:42:51;;;;;;;15.13;6.35;;;;;;;;;;6196661;23;20031;-95
2023/01/23 12:45:25;;;;;;;13.23;6.38;;;;;;;;;;6195752;23;20479;-95
2023/01/23 12:47:57;;;;;;;10.13;5.63;;;;;;;;;;6196713;23;20001;-95
2023/01/23 12:50:29;;;;;;;10.73;5.88;;;;;;;;;;6223651;23;20043;-96
2023/01/23 12:53:00;;;;;;;13.25;6.03;;;;;;;;;;6196479;23;20043;-96
2023/01/23 12:55:32;;;;;;;9.90;5.70;;;;;;;;;;6196515;23;20012;-96
2023/01/23 12:57:59;;;;;;;14.07;6.47;;;;;;;;;;6195966;23;20043;-96
2023/01/23 13:00:38;;;;;;;13.95;6.30;;;;;;;;;;6196274;23;20071;-96
2023/01/23 13:03:07;;;;;;;13.93;6.60;;;;;;;;;;6198870;23;20021;-96
2023/01/23 13:06:02;;;;;;;12.77;6.50;;;;;;;;;;6197274;23;20429;-96
2023/01/23 13:08:40;;;;;;;10.20;5.78;;;;;;;;;;6172667;23;20001;-96
2023/01/23 13:13:56;;;;;;;10.45;5.90;;;;;;;;;;6222753;23;20015;-96
2023/01/23 13:16:26;;;;;;;15.95;7.00;;;;;;;;;;6171774;23;20142;-95
2023/01/23 14:20:11;;;;;;;17.30;7.25;;;;;;;;;;6260772;22;20697;-95
2023/01/23 14:22:37;;;;;;;15.93;6.97;;;;;;;;;;6258176;22;20018;-95
2023/01/23 14:25:13;;;;;;;14.63;7.03;;;;;;;;;;6233443;22;20344;-95
2023/01/23 14:27:39;;;;;;;29.23;6.90;;;;;;;;;;6257764;22;20003;-96
2023/01/23 14:30:11;;;;;;;16.40;7.45;;;;;;;;;;6233301;22;20011;-95
2023/01/23 14:32:38;;;;;;;14.93;6.75;;;;;;;;;;6260378;22;20419;-96
2023/01/23 14:35:24;;;;;;;12.63;6.93;;;;;;;;;;6258496;22;20004;-95
2023/01/23 14:37:54;;;;;;;19.83;7.63;;;;;;;;;;6259042;22;20484;-95
2023/01/23 14:40:21;;;;;;;16.48;6.78;;;;;;;;;;6233826;22;20008;-96
2023/01/23 14:43:06;;;;;;;14.23;7.07;;;;;;;;;;6233763;22;20058;-95
2023/01/23 14:45:33;;;;;;;14.05;6.97;;;;;;;;;;6258413;22;19996;-95
2023/01/23 14:47:59;;;;;;;12.40;6.75;;;;;;;;;;6234154;22;20008;-95
2023/01/23 14:50:26;;;;;;;14.70;7.22;;;;;;;;;;6232956;22;20153;-95
2023/01/23 14:52:59;;;;;;;14.75;7.30;;;;;;;;;;6258776;22;20051;-96
2023/01/23 14:55:26;;;;;;;19.23;7.65;;;;;;;;;;6258179;22;20348;-96
2023/01/23 14:57:53;;;;;;;16.98;7.40;;;;;;;;;;6232811;22;20099;-96
2023/01/23 15:00:20;;;;;;;18.60;7.20;;;;;;;;;;6232197;22;20007;-96
2023/01/23 15:02:49;;;;;;;16.92;7.47;;;;;;;;;;6232178;22;20004;-96
2023/01/23 15:05:17;;;;;;;14.77;7.35;;;;;;;;;;6256608;22;20003;-95
2023/01/23 15:08:02;;;;;;;16.95;7.85;;;;;;;;;;6257337;22;20007;-96
2023/01/23 15:10:29;;;;;;;17.67;7.53;;;;;;;;;;6257213;22;20075;-95
2023/01/23 15:13:03;;;;;;;15.93;6.75;;;;;;;;;;6257113;22;20344;-96
2023/01/23 15:15:31;;;;;;;15.55;6.68;;;;;;;;;;6257396;22;20000;-96
2023/01/23 15:17:58;;;;;;;17.27;7.20;;;;;;;;;;6256916;22;20000;-95
2023/01/23 15:20:41;;;;;;;17.48;6.90;;;;;;;;;;6263356;22;20012;-95
2023/01/23 15:23:29;;;;;;;16.65;8.13;;;;;;;;;;6255840;22;20018;-96
2023/01/23 15:26:21;;;;;;;18.65;8.00;;;;;;;;;;6251740;23;20019;-95
2023/01/23 15:29:01;;;;;;;16.77;6.68;;;;;;;;;;6251685;23;20333;-96
2023/01/23 15:31:32;;;;;;;14.30;6.63;;;;;;;;;;6251831;23;20004;-96
2023/01/23 15:34:13;;;;;;;12.20;6.45;;;;;;;;;;6250875;23;20091;-96
2023/01/23 15:36:45;;;;;;;12.27;6.25;;;;;;;;;;6251258;23;20008;-96
2023/01/23 15:39:31;;;;;;;16.85;7.32;;;;;;;;;;6252479;23;20008;-94
2023/01/23 15:42:01;;;;;;;19.48;6.68;;;;;;;;;;6257243;23;20007;-95
2023/01/23 15:44:29;;;;;;;17.20;6.10;;;;;;;;;;6249490;23;20328;-95
2023/01/23 15:46:55;;;;;;;14.95;6.75;;;;;;;;;;6249060;23;20446;-94
2023/01/23 15:49:21;;;;;;;13.68;6.80;;;;;;;;;;6249985;23;20000;-95
2023/01/23 15:51:48;;;;;;;14.07;6.63;;;;;;;;;;6250477;23;20027;-95